ADDS METAR Data INFO
IDs: Format: Raw Decoded Include TAF

Data at: 0918 UTC 13 Dec 2017

KGBG 130855Z AUTO 17007KT 10SM CLR M04/M09 A2978 RMK AO2 T10371086
KGBG 130835Z AUTO 17007KT 10SM SCT080 M03/M09 A2979 RMK AO2 T10351090
KGBG 130815Z AUTO 19009KT 10SM OVC080 M03/M09 A2981 RMK AO2 T10301090
KGBG 130755Z AUTO 18009KT 10SM OVC080 M03/M09 A2982 RMK AO2 T10301095
KGBG 130735Z AUTO 18007KT 10SM SCT070 OVC080 M03/M10 A2983 RMK AO2 T10351098
KGBG 130715Z AUTO 17004KT 10SM SCT070 OVC080 M04/M10 A2986 RMK AO2 T10411100
KGBG 130655Z AUTO 18005KT 10SM BKN080 M04/M11 A2986 RMK AO2 T10451107
KGBG 130635Z AUTO 19005KT 10SM BKN080 M04/M11 A2988 RMK AO2 T10431110
KGBG 130615Z AUTO 19006KT 10SM OVC090 M04/M11 A2990 RMK AO2 T10451111
KGBG 130555Z AUTO 20005KT 10SM SCT075 OVC090 M04/M11 A2991 RMK AO2 T10451113 11030 21065 400061078
KGBG 130535Z AUTO 21006KT 10SM SCT075 OVC100 M04/M12 A2992 RMK AO2 T10411116
KGBG 130515Z AUTO 20007KT 10SM SCT085 OVC100 M04/M11 A2994 RMK AO2 T10421109
KGBG 130455Z AUTO 20006KT 10SM OVC085 M04/M11 A2995 RMK AO2 T10451109
KGBG 130435Z AUTO 20005KT 10SM BKN085 M05/M11 A2997 RMK AO2 T10531110
KGBG 130415Z AUTO 18003KT 10SM SCT085 M06/M12 A2998 RMK AO2 T10601120
KGBG 130350Z AUTO 21004KT 10SM CLR M06/M12 A2999 RMK AO2 T10631119
KGBG 130335Z AUTO 20005KT 10SM CLR M06/M12 A3000 RMK AO2 T10631118
KGBG 130315Z AUTO 20005KT 10SM SCT055 M06/M11 A3000 RMK AO2 T10581115
KGBG 130255Z AUTO 20005KT 10SM BKN055 M05/M11 A3001 RMK AO2 T10541112
KGBG 130235Z AUTO 21004KT 10SM OVC055 M05/M11 A3002 RMK AO2 T10471110
KGBG 130215Z AUTO 20004KT 10SM OVC055 M05/M10 A3004 RMK AO2 T10481105
KGBG 130155Z AUTO 00000KT 10SM BKN055 M05/M12 A3005 RMK AO2 T10511119
KGBG 130130Z AUTO 21003KT 10SM CLR M05/M12 A3005 RMK AO2 T10491122
KGBG 130050Z AUTO 23003KT 10SM SCT050 M03/M14 A3007 RMK AO2 T10351136
KGBG 130035Z AUTO 00000KT 10SM OVC050 M03/M13 A3007 RMK AO2 T10311135
KGBG 130015Z AUTO 00000KT 10SM BKN050 OVC070 M03/M13 A3007 RMK AO2 T10331131
KGBG 122355Z AUTO 00000KT 10SM SCT050 SCT070 OVC100 M04/M13 A3008 RMK AO2 T10411130 11018 21044
KGBG 122335Z AUTO 26004KT 10SM OVC100 M03/M13 A3008 RMK AO2 T10311129
KGBG 122310Z AUTO 25003KT 10SM OVC110 M03/M13 A3008 RMK AO2 T10331132
KGBG 122255Z AUTO 26006KT 10SM SCT085 BKN110 M04/M13 A3008 RMK AO2 T10441132
KGBG 122235Z AUTO 28006KT 10SM BKN085 BKN110 M03/M13 A3010 RMK AO2 T10341135
KGBG 122215Z AUTO 28008KT 10SM CLR M03/M14 A3010 RMK AO2 T10301141
KGBG 122155Z AUTO 27010KT 10SM CLR M02/M14 A3010 RMK AO2 T10231136
KGBG 122135Z AUTO 27011KT 10SM CLR M02/M14 A3010 RMK AO2 T10221139
KGBG 122115Z AUTO 28012KT 10SM CLR M02/M15 A3011 RMK AO2 T10221154
KGBG 122050Z AUTO 29011G14KT 10SM CLR M02/M15 A3012 RMK AO2 T10221148
KGBG 122035Z AUTO 28010G16KT 10SM CLR M02/M15 A3012 RMK AO2 T10201148
KGBG 122015Z AUTO 28014KT 10SM CLR M02/M14 A3013 RMK AO2 T10191143
KGBG 121955Z AUTO 31012G17KT 10SM CLR M02/M15 A3013 RMK AO2 T10211147
KGBG 121935Z AUTO 30013KT 10SM CLR M02/M14 A3013 RMK AO2 T10221139
KGBG 121915Z AUTO 30012G18KT 10SM CLR M02/M14 A3014 RMK AO2 T10241141
KGBG 121855Z AUTO 29014G18KT 10SM CLR M02/M13 A3014 RMK AO2 T10251135
KGBG 121835Z AUTO 29013G17KT 10SM CLR M02/M13 A3015 RMK AO2 T10251131
KGBG 121815Z AUTO 30011KT 10SM CLR M03/M12 A3016 RMK AO2 T10341124
KGBG 121755Z AUTO 31011G18KT 10SM CLR M03/M11 A3017 RMK AO2 T10341115 11034 21078
KGBG 121730Z AUTO 29014G17KT 10SM CLR M04/M11 A3019 RMK AO2 T10401110
KGBG 121720Z AUTO 29010G18KT 10SM SCT080 M04/M11 A3019 RMK AO2 T10401108
KGBG 121655Z AUTO 30013G18KT 10SM SCT080 M04/M10 A3021 RMK AO2 T10441098
KGBG 121635Z AUTO 29012KT 10SM SCT090 M05/M10 A3022 RMK AO2 T10521100
KGBG 121615Z AUTO 30011KT 10SM SCT016 SCT090 M05/M10 A3022 RMK AO2 T10531098
KGBG 121555Z AUTO 30012G18KT 10SM BKN016 M06/M09 A3022 RMK AO2 T10561094
KGBG 121530Z AUTO 30012G16KT 10SM SCT014 M06/M09 A3021 RMK AO2 T10581089
KGBG 121510Z AUTO 30011G16KT 10SM SCT014 M06/M09 A3021 RMK AO2 T10601089
KGBG 121455Z AUTO 30012G18KT 10SM CLR M06/M09 A3020 RMK AO2 T10631092
KGBG 121430Z AUTO 31012G16KT 10SM CLR M07/M09 A3020 RMK AO2 T10671094
KGBG 121415Z AUTO 30011KT 10SM CLR M07/M10 A3020 RMK AO2 T10711099
KGBG 121355Z AUTO 30009KT 10SM CLR M07/M10 A3019 RMK AO2 T10751104
KGBG 121335Z AUTO 31010KT 10SM CLR M08/M11 A3019 RMK AO2 T10771106
KGBG 121315Z AUTO 30010KT 10SM CLR M08/M11 A3020 RMK AO2 T10761106
KGBG 121255Z AUTO 31011KT 10SM CLR M07/M10 A3019 RMK AO2 T10751103
KGBG 121235Z AUTO 31009KT 10SM CLR M07/M10 A3019 RMK AO2 T10731101
KGBG 121215Z AUTO 31010KT 10SM CLR M07/M10 A3018 RMK AO2 T10701099
KGBG 121155Z AUTO 31010KT 10SM CLR M07/M09 A3017 RMK AO2 T10681095 10006 21068
KGBG 121135Z AUTO 30011KT 10SM CLR M07/M09 A3017 RMK AO2 T10671094
KGBG 121115Z AUTO 31012KT 10SM CLR M06/M09 A3015 RMK AO2 T10641093
KGBG 121055Z AUTO 31011G16KT 10SM CLR M06/M09 A3016 RMK AO2 T10611091
KGBG 121035Z AUTO 31013G17KT 10SM CLR M06/M09 A3015 RMK AO2 T10601087
KGBG 121015Z AUTO 31012G15KT 10SM CLR M06/M09 A3015 RMK AO2 T10561087
KGBG 120955Z AUTO 31012KT 10SM CLR M05/M09 A3014 RMK AO2 T10511088
KGBG 120935Z AUTO 32013G18KT 10SM CLR M05/M08 A3014 RMK AO2 T10481085
KGBG 120915Z AUTO 31011G18KT 10SM CLR M04/M08 A3013 RMK AO2 T10451081
KGBG 120855Z AUTO 33015G24KT 10SM CLR M04/M09 A3013 RMK AO2 T10401088
KGBG 120830Z AUTO 32018G26KT 10SM CLR M03/M08 A3012 RMK AO2 T10351085
KGBG 120815Z AUTO 32017G23KT 10SM SCT028 M03/M08 A3011 RMK AO2 T10311081
KGBG 120755Z AUTO 32018G25KT 10SM OVC028 M02/M07 A3010 RMK AO2 T10211068
KGBG 120735Z AUTO 33016G22KT 10SM OVC028 M02/M06 A3009 RMK AO2 T10161062
KGBG 120715Z AUTO 31015G23KT 10SM BKN028 OVC033 M01/M06 A3008 RMK AO2 T10111057
KGBG 120650Z AUTO 31018G25KT 10SM SCT029 OVC033 M01/M05 A3007 RMK AO2 T10081054
KGBG 120635Z AUTO 32014G23KT 10SM OVC031 00/M05 A3006 RMK AO2 T10021048
KGBG 120615Z AUTO 32016G26KT 10SM OVC029 01/M04 A3005 RMK AO2 T00051041
KGBG 120555Z AUTO 30012G18KT 10SM OVC029 01/M03 A3005 RMK AO2 T00051033 10025 20005 400771027
KGBG 120535Z AUTO 32009G17KT 10SM OVC031 01/M04 A3005 RMK AO2 T00061038
KGBG 120515Z AUTO 33016G23KT 10SM OVC031 01/M04 A3004 RMK AO2 T00061040
KGBG 120455Z AUTO 32019G28KT 10SM OVC029 01/M04 A3004 RMK AO2 T00071039
KGBG 120435Z AUTO 32019G25KT 10SM OVC023 01/M02 A3003 RMK AO2 T00081024
KGBG 120415Z AUTO 31016G27KT 10SM OVC019 01/M01 A3003 RMK AO2 T00121015
KGBG 120355Z AUTO 32017G25KT 10SM OVC017 02/00 A3001 RMK AO2 T00181005
KGBG 120335Z AUTO 31015G21KT 10SM OVC017 02/00 A3000 RMK AO2 T00200000
KGBG 120315Z AUTO 32018G22KT 10SM OVC015 02/00 A2998 RMK AO2 T00200002
KGBG 120255Z AUTO 30015G20KT 10SM OVC013 02/01 A2997 RMK AO2 T00230007
KGBG 120230Z AUTO 31017G22KT 10SM OVC011 03/01 A2994 RMK AO2 T00250010
KGBG 120215Z AUTO 31015G19KT 10SM OVC011 03/01 A2994 RMK AO2 T00250014
KGBG 120155Z AUTO 31010G18KT 10SM OVC009 02/02 A2994 RMK AO2 T00230015
KGBG 120135Z AUTO 30011G18KT 10SM OVC009 02/02 A2992 RMK AO2 T00210015
KGBG 120115Z AUTO 30011G18KT 10SM OVC007 02/02 A2991 RMK AO2 T00200015
KGBG 120100Z AUTO 30010G15KT 10SM OVC007 02/02 A2990 RMK AO2 T00180016
KGBG 120035Z AUTO 29013KT 5SM -RA OVC007 02/01 A2989 RMK AO2 T00160011
KGBG 120010Z AUTO 29012KT 7SM RA OVC009 02/01 A2988 RMK AO2 T00210012
KGBG 112350Z AUTO 30014G21KT 10SM OVC011 03/01 A2986 RMK AO2 T00250011 10077 20025
KGBG 112335Z AUTO 30012G17KT 5SM -DZ OVC011 03/01 A2985 RMK AO2 T00260011
KGBG 112315Z AUTO 30017G22KT 10SM OVC013 03/01 A2984 RMK AO2 T00300007
KGBG 112255Z AUTO 31016G23KT 10SM BKN018 OVC023 03/01 A2982 RMK AO2 T00340005
KGBG 112235Z AUTO 31015G22KT 10SM SCT024 OVC033 04/00 A2980 RMK AO2 T00431004
KGBG 112215Z AUTO 30017G22KT 10SM OVC035 05/M01 A2978 RMK AO2 T00501010
KGBG 112155Z AUTO 29019G26KT 10SM BKN037 OVC065 05/M01 A2977 RMK AO2 T00531011
KGBG 112135Z AUTO 29019G27KT 10SM SCT065 BKN075 OVC095 06/M01 A2975 RMK AO2 T00551015